الصفحة الرئيسية
METAR-TAF:

METAR-TAF

مطار :

Nain, نيوفاوندلاند ولابرادور, كندا

دائرة عرض: 56-33N, خط طول: 061-41W, ارتفاع: 6 متر

مراقبة الطقس الحالي

تاريخ ووقت الإصدار 1ساعة و 8 دقيقة قبل الساعة 17:00UTC
ريح 29 عقدة من الغرب/الشمال الغربي تتزايد حتى 36 عقدة
درجة الحرارة 13°درجة مئوية
الرطوبة 51%
ضغط 1002 hPa
الرؤية: 24.1 كم
غيوم مفككة على ارتفاع 4400 قدم
غيوم مفككة على ارتفاع 13000 قدم

METAR: CYDP 151700Z 29029G36KT 15SM BKN044 BKN130 13/03 A2958 RMK SC6AC1 AC TR SLP020

زمن: 15:08 (18:08 UTC)

توقعات

تاريخ ووقت الإصدار 4ساعات و 28 دقيقة قبل الساعة 13:40UTC
التوقعات صالحة من15 الساعة 14 UTC إلى 15 الساعة 23 UTC
ريح 20 عقدة من الغرب تتزايد حتى 32 عقدة
الرؤية: 10 كم
غيوم قليلة على ارتفاع 2000 قدم
غيوم مفككة على ارتفاع 4000 قدم

TAF: CYDP 151340Z 1514/1523 26020G32KT P6SM FEW020 BKN040 RMK NXT FCST BY 152000Z

أرصاد الطقس والتوقعات من أكثر من 4000 مطار (تقارير الطقس للمطار METAR والتنبؤ بالطقس بالمطارTAF).

المحطات المتاحة هي النقط الصفراء والحمراء على الخريطة.

حرك المؤشر فوق النقطة لمعرفة اسم المحطة.

ثم انقر لمعرفة أرصاد وتوقعات الطقس.

لتغيير الخارطة: اضغط على الأزرار الخضراء مع رمز الصليب الأسود للتكبير. على الزر الأخضر مع شرطة للتصغير، أو على الأسهم الخضراء للخرائط المجاورة.


METAR-TAF: